Time;durP1;ratioP1;P1;durP2;ratioP2;P2;SDS_P1;SDS_P2;PMS_P1;PMS_P2;Temp;Humidity;BMP_temperature;BMP_pressure;BME280_temperature;BME280_humidity;BME280_pressure;Samples;Min_cycle;Max_cycle;Signal;HPM_P1;HPM_P2
2023/03/09 00:00:35;;;;;;;17.90;10.70;;;;;;;;;;5128377;27;20042;-80
2023/03/09 00:03:01;;;;;;;17.38;11.40;;;;;;;;;;5131685;27;20048;-80
2023/03/09 00:05:27;;;;;;;20.23;12.63;;;;;;;;;;5122735;27;20049;-80
2023/03/09 00:07:55;;;;;;;21.27;12.20;;;;;;;;;;5123194;27;20168;-79
2023/03/09 00:10:21;;;;;;;20.92;12.45;;;;;;;;;;5121293;27;20043;-79
2023/03/09 00:12:48;;;;;;;21.15;12.60;;;;;;;;;;5119517;27;20055;-80
2023/03/09 00:15:14;;;;;;;20.25;13.57;;;;;;;;;;5122735;27;20135;-79
2023/03/09 00:17:40;;;;;;;25.20;13.60;;;;;;;;;;5125546;27;20472;-80
2023/03/09 00:20:18;;;;;;;20.23;13.68;;;;;;;;;;5122241;27;20152;-80
2023/03/09 00:22:51;;;;;;;20.73;13.18;;;;;;;;;;5093501;28;20044;-79
2023/03/09 00:25:18;;;;;;;22.17;14.77;;;;;;;;;;5097550;28;20036;-79
2023/03/09 00:27:46;;;;;;;24.58;14.40;;;;;;;;;;5098131;28;20040;-79
2023/03/09 00:30:13;;;;;;;22.23;13.55;;;;;;;;;;5108986;28;20085;-79
2023/03/09 00:32:39;;;;;;;23.98;13.93;;;;;;;;;;5103743;28;20077;-80
2023/03/09 00:35:05;;;;;;;23.63;13.65;;;;;;;;;;5109174;28;20143;-79
2023/03/09 00:37:32;;;;;;;22.17;14.32;;;;;;;;;;5092479;28;20039;-79
2023/03/09 00:39:58;;;;;;;23.48;14.63;;;;;;;;;;5099969;28;20092;-79
2023/03/09 00:42:24;;;;;;;22.00;13.82;;;;;;;;;;5104210;28;20050;-79
2023/03/09 00:44:50;;;;;;;21.45;13.50;;;;;;;;;;5108452;28;20040;-80
2023/03/09 00:47:16;;;;;;;20.58;13.30;;;;;;;;;;5096072;28;20052;-79
2023/03/09 00:49:43;;;;;;;22.23;13.40;;;;;;;;;;5100068;28;20479;-79
2023/03/09 00:52:09;;;;;;;23.35;13.65;;;;;;;;;;5108980;28;20048;-80
2023/03/09 00:54:35;;;;;;;20.90;13.00;;;;;;;;;;5101808;28;20054;-80
2023/03/09 00:57:02;;;;;;;21.08;12.52;;;;;;;;;;5107925;28;20044;-79
2023/03/09 00:59:28;;;;;;;21.92;12.20;;;;;;;;;;5110339;28;20372;-80
2023/03/09 01:01:54;;;;;;;20.83;13.10;;;;;;;;;;5114406;28;20083;-80
2023/03/09 01:04:20;;;;;;;22.30;12.80;;;;;;;;;;5112604;28;20051;-80
2023/03/09 01:06:46;;;;;;;22.38;13.30;;;;;;;;;;5113656;28;20390;-80
2023/03/09 01:09:12;;;;;;;21.15;12.80;;;;;;;;;;5112975;28;20043;-80
2023/03/09 01:11:38;;;;;;;22.25;13.23;;;;;;;;;;5111859;28;20039;-80
2023/03/09 01:14:04;;;;;;;20.48;12.98;;;;;;;;;;5102750;28;20040;-80
2023/03/09 01:16:30;;;;;;;21.83;12.98;;;;;;;;;;5105485;28;20556;-80
2023/03/09 01:18:56;;;;;;;21.25;12.88;;;;;;;;;;5103247;28;20118;-80
2023/03/09 01:21:22;;;;;;;22.92;12.48;;;;;;;;;;5112071;27;20051;-80
2023/03/09 01:23:48;;;;;;;18.65;11.90;;;;;;;;;;5110697;28;20043;-79
2023/03/09 01:26:14;;;;;;;23.08;12.43;;;;;;;;;;5117401;27;20051;-80
2023/03/09 01:28:40;;;;;;;19.98;12.90;;;;;;;;;;5105804;27;20035;-80
2023/03/09 01:31:11;;;;;;;21.15;12.68;;;;;;;;;;5142140;27;20063;-80
2023/03/09 01:33:38;;;;;;;24.27;12.65;;;;;;;;;;5110989;27;20126;-80
2023/03/09 01:36:09;;;;;;;23.98;12.40;;;;;;;;;;5109876;27;20047;-80
2023/03/09 01:38:35;;;;;;;21.15;13.20;;;;;;;;;;5103381;27;20077;-80
2023/03/09 01:41:01;;;;;;;19.63;12.35;;;;;;;;;;5107895;28;20043;-80
2023/03/09 01:43:34;;;;;;;19.27;13.15;;;;;;;;;;5105046;27;20043;-79
2023/03/09 01:46:19;;;;;;;22.92;13.35;;;;;;;;;;5099926;28;20051;-80
2023/03/09 01:48:46;;;;;;;18.10;11.93;;;;;;;;;;5114632;27;20044;-80
2023/03/09 01:51:12;;;;;;;19.33;12.18;;;;;;;;;;5112051;27;20418;-80
2023/03/09 01:53:38;;;;;;;17.17;11.93;;;;;;;;;;5109552;28;20424;-80
2023/03/09 01:56:04;;;;;;;20.58;12.30;;;;;;;;;;5116535;27;20052;-80
2023/03/09 01:58:31;;;;;;;18.45;11.43;;;;;;;;;;5114709;27;20039;-80
2023/03/09 02:00:57;;;;;;;20.20;12.43;;;;;;;;;;5107036;28;20040;-80
2023/03/09 02:03:28;;;;;;;19.15;12.07;;;;;;;;;;5110686;28;20074;-80
2023/03/09 02:05:57;;;;;;;22.13;12.35;;;;;;;;;;5091933;28;20051;-80
2023/03/09 02:08:25;;;;;;;17.85;11.65;;;;;;;;;;5113653;28;20099;-80
2023/03/09 02:10:58;;;;;;;19.38;11.98;;;;;;;;;;5099038;28;20156;-80
2023/03/09 02:13:29;;;;;;;19.27;12.20;;;;;;;;;;5107949;28;20035;-80
2023/03/09 02:15:55;;;;;;;21.60;12.23;;;;;;;;;;5125048;27;20043;-80
2023/03/09 02:18:24;;;;;;;20.10;12.05;;;;;;;;;;5098302;27;20043;-80
2023/03/09 02:21:08;;;;;;;18.67;12.18;;;;;;;;;;5120632;27;20138;-80
2023/03/09 02:23:34;;;;;;;18.80;11.45;;;;;;;;;;5130672;27;20058;-80
2023/03/09 02:26:20;;;;;;;19.52;12.38;;;;;;;;;;5129912;27;20042;-80
2023/03/09 02:28:47;;;;;;;18.85;12.23;;;;;;;;;;5118097;27;20059;-79
2023/03/09 02:31:14;;;;;;;19.70;12.45;;;;;;;;;;5131063;27;20114;-80
2023/03/09 02:33:40;;;;;;;18.23;11.40;;;;;;;;;;5128416;27;20051;-80
2023/03/09 02:36:06;;;;;;;18.35;11.85;;;;;;;;;;5128868;27;20042;-80
2023/03/09 02:38:32;;;;;;;21.80;11.90;;;;;;;;;;5132582;27;20126;-80
2023/03/09 02:40:59;;;;;;;17.83;12.20;;;;;;;;;;5130526;27;20043;-80
2023/03/09 02:43:28;;;;;;;21.45;12.05;;;;;;;;;;5127279;27;20044;-80
2023/03/09 02:45:54;;;;;;;16.55;11.77;;;;;;;;;;5129571;27;20051;-80
2023/03/09 02:48:20;;;;;;;20.05;12.00;;;;;;;;;;5131351;27;20045;-80
2023/03/09 02:50:46;;;;;;;19.83;12.45;;;;;;;;;;5128592;27;20052;-80
2023/03/09 02:53:13;;;;;;;19.83;12.15;;;;;;;;;;5122519;27;20120;-80
2023/03/09 02:55:39;;;;;;;18.23;11.95;;;;;;;;;;5126960;27;20327;-80
2023/03/09 02:58:05;;;;;;;19.60;11.65;;;;;;;;;;5129646;27;20123;-80
2023/03/09 03:00:31;;;;;;;19.77;12.20;;;;;;;;;;5123373;27;20078;-80
2023/03/09 03:02:57;;;;;;;19.05;12.65;;;;;;;;;;5122453;27;20035;-80
2023/03/09 03:05:23;;;;;;;18.35;12.30;;;;;;;;;;5125746;27;20541;-80
2023/03/09 03:07:49;;;;;;;21.58;12.68;;;;;;;;;;5132178;27;20529;-80
2023/03/09 03:10:15;;;;;;;19.40;13.32;;;;;;;;;;5130811;27;20482;-80
2023/03/09 03:12:41;;;;;;;19.75;11.85;;;;;;;;;;5130205;27;20051;-80
2023/03/09 03:15:08;;;;;;;20.08;13.00;;;;;;;;;;5130829;27;20043;-80
2023/03/09 03:17:34;;;;;;;19.23;12.57;;;;;;;;;;5131892;27;20100;-80
2023/03/09 03:20:00;;;;;;;19.27;12.57;;;;;;;;;;5128735;27;20401;-80
2023/03/09 03:22:26;;;;;;;19.83;12.45;;;;;;;;;;5133596;27;20054;-80
2023/03/09 03:24:52;;;;;;;20.02;12.23;;;;;;;;;;5131040;27;20095;-80
2023/03/09 03:27:18;;;;;;;18.98;13.55;;;;;;;;;;5128503;27;20042;-80
2023/03/09 03:29:45;;;;;;;23.35;13.50;;;;;;;;;;5134672;27;20047;-80
2023/03/09 03:32:12;;;;;;;20.75;12.93;;;;;;;;;;5115408;27;20043;-80
2023/03/09 03:34:38;;;;;;;21.63;13.45;;;;;;;;;;5144433;27;20494;-80
2023/03/09 03:37:04;;;;;;;21.20;12.90;;;;;;;;;;5122342;27;20047;-80
2023/03/09 03:39:30;;;;;;;19.55;12.55;;;;;;;;;;5133269;27;20125;-80
2023/03/09 03:41:56;;;;;;;19.80;13.20;;;;;;;;;;5137640;27;20459;-80
2023/03/09 03:44:22;;;;;;;21.38;12.73;;;;;;;;;;5129770;27;20046;-80
2023/03/09 03:46:48;;;;;;;20.27;13.27;;;;;;;;;;5153338;27;20097;-79
2023/03/09 03:49:14;;;;;;;20.35;12.32;;;;;;;;;;5123142;27;20039;-79
2023/03/09 03:51:40;;;;;;;20.17;13.25;;;;;;;;;;5123040;27;20438;-80
2023/03/09 03:54:06;;;;;;;18.30;12.48;;;;;;;;;;5141119;27;20121;-80
2023/03/09 03:56:32;;;;;;;19.92;13.52;;;;;;;;;;5149036;27;20039;-80
2023/03/09 03:58:58;;;;;;;22.88;13.18;;;;;;;;;;5129801;27;20038;-80
2023/03/09 04:01:24;;;;;;;20.25;13.27;;;;;;;;;;5128113;27;20052;-80
2023/03/09 04:03:50;;;;;;;21.27;12.77;;;;;;;;;;5151904;27;20078;-79
2023/03/09 04:06:16;;;;;;;19.58;12.70;;;;;;;;;;5143495;27;20141;-80
2023/03/09 04:08:43;;;;;;;19.58;13.38;;;;;;;;;;5152947;27;20035;-80
2023/03/09 04:11:09;;;;;;;21.75;13.48;;;;;;;;;;5129113;27;20045;-80
2023/03/09 04:13:36;;;;;;;23.23;13.70;;;;;;;;;;5150238;27;20047;-80
2023/03/09 04:16:02;;;;;;;21.08;13.07;;;;;;;;;;5132270;27;20087;-80
2023/03/09 04:18:28;;;;;;;22.55;14.55;;;;;;;;;;5149415;27;20045;-80
2023/03/09 04:20:54;;;;;;;21.27;13.65;;;;;;;;;;5128701;27;20456;-80
2023/03/09 04:23:20;;;;;;;20.50;13.88;;;;;;;;;;5129454;27;20044;-80
2023/03/09 04:26:00;;;;;;;22.80;14.55;;;;;;;;;;5128215;27;20047;-80
2023/03/09 04:28:26;;;;;;;23.10;14.35;;;;;;;;;;5130114;28;20051;-80
2023/03/09 04:30:52;;;;;;;22.80;14.13;;;;;;;;;;5132302;27;20038;-80
2023/03/09 04:33:18;;;;;;;23.13;13.77;;;;;;;;;;5128498;27;20402;-80
2023/03/09 04:35:44;;;;;;;23.23;15.52;;;;;;;;;;5125700;28;20051;-80
2023/03/09 04:38:11;;;;;;;20.85;13.75;;;;;;;;;;5117772;28;20432;-80
2023/03/09 04:40:37;;;;;;;26.02;14.77;;;;;;;;;;5128109;28;20035;-80
2023/03/09 04:43:03;;;;;;;21.60;14.82;;;;;;;;;;5128959;28;20159;-80
2023/03/09 04:45:30;;;;;;;23.35;14.10;;;;;;;;;;5124596;28;20138;-80
2023/03/09 04:47:56;;;;;;;23.13;14.90;;;;;;;;;;5112441;28;20097;-80
2023/03/09 04:50:22;;;;;;;20.98;13.90;;;;;;;;;;5126550;28;20139;-80
2023/03/09 04:52:49;;;;;;;23.83;14.15;;;;;;;;;;5126376;28;20035;-80
2023/03/09 04:55:16;;;;;;;23.85;15.00;;;;;;;;;;5126085;28;20047;-80
2023/03/09 04:57:42;;;;;;;23.67;14.00;;;;;;;;;;5130880;28;20054;-80
2023/03/09 05:00:10;;;;;;;25.25;15.00;;;;;;;;;;5124362;28;20043;-80
2023/03/09 05:02:37;;;;;;;23.02;14.48;;;;;;;;;;5119430;28;20120;-80
2023/03/09 05:05:03;;;;;;;26.08;15.23;;;;;;;;;;5126110;28;20043;-80
2023/03/09 05:07:29;;;;;;;23.90;15.77;;;;;;;;;;5129215;27;20560;-80
2023/03/09 05:09:55;;;;;;;21.40;13.70;;;;;;;;;;5118593;28;20448;-81
2023/03/09 05:12:21;;;;;;;23.38;14.55;;;;;;;;;;5128301;28;20122;-81
2023/03/09 05:14:47;;;;;;;23.15;14.27;;;;;;;;;;5127293;28;20043;-80
2023/03/09 05:17:13;;;;;;;27.08;15.50;;;;;;;;;;5123529;28;20103;-80
2023/03/09 05:19:39;;;;;;;25.48;15.32;;;;;;;;;;5130379;28;20543;-80
2023/03/09 05:22:05;;;;;;;23.67;15.23;;;;;;;;;;5149001;27;20257;-80
2023/03/09 05:24:31;;;;;;;25.73;15.07;;;;;;;;;;5142757;27;20138;-80
2023/03/09 05:26:57;;;;;;;27.38;14.82;;;;;;;;;;5132499;27;20039;-80
2023/03/09 05:29:23;;;;;;;24.65;14.93;;;;;;;;;;5150712;27;20050;-81
2023/03/09 05:31:49;;;;;;;23.13;14.25;;;;;;;;;;5127302;27;20047;-80
2023/03/09 05:34:17;;;;;;;28.30;15.98;;;;;;;;;;5124855;27;20125;-80
2023/03/09 05:36:43;;;;;;;28.75;15.75;;;;;;;;;;5130676;27;21238;-80
2023/03/09 05:39:09;;;;;;;24.70;15.02;;;;;;;;;;5131429;27;20050;-81
2023/03/09 05:41:35;;;;;;;24.17;14.77;;;;;;;;;;5124180;27;20095;-81
2023/03/09 05:44:01;;;;;;;22.02;14.43;;;;;;;;;;5126986;27;20049;-80
2023/03/09 05:46:27;;;;;;;24.02;14.63;;;;;;;;;;5135553;27;20046;-80
2023/03/09 05:48:53;;;;;;;25.13;15.35;;;;;;;;;;5150312;27;20072;-80
2023/03/09 05:51:19;;;;;;;25.02;15.48;;;;;;;;;;5147982;27;20508;-80
2023/03/09 05:53:46;;;;;;;23.92;15.30;;;;;;;;;;5152466;27;20503;-80
2023/03/09 05:56:13;;;;;;;23.63;15.02;;;;;;;;;;5146034;27;20383;-81
2023/03/09 05:58:39;;;;;;;26.13;16.23;;;;;;;;;;5133730;27;20406;-80
2023/03/09 06:01:05;;;;;;;26.77;15.35;;;;;;;;;;5131444;27;20401;-82
2023/03/09 06:03:31;;;;;;;24.40;15.15;;;;;;;;;;5150775;27;20126;-80
2023/03/09 06:06:00;;;;;;;28.50;15.63;;;;;;;;;;5124764;27;20482;-80
2023/03/09 06:08:26;;;;;;;25.77;15.25;;;;;;;;;;5154028;27;20046;-80
2023/03/09 06:10:52;;;;;;;26.38;15.30;;;;;;;;;;5143202;27;20074;-80
2023/03/09 06:13:20;;;;;;;26.67;16.45;;;;;;;;;;5133171;27;20057;-80
2023/03/09 06:15:46;;;;;;;25.00;15.18;;;;;;;;;;5155280;27;20840;-79
2023/03/09 06:18:12;;;;;;;25.58;15.73;;;;;;;;;;5133085;27;20042;-80
2023/03/09 06:20:38;;;;;;;26.55;16.05;;;;;;;;;;5149542;27;20062;-80
2023/03/09 06:23:04;;;;;;;25.23;15.73;;;;;;;;;;5151231;27;20162;-80
2023/03/09 06:25:30;;;;;;;28.15;16.23;;;;;;;;;;5129492;27;20039;-81
2023/03/09 06:27:56;;;;;;;26.63;16.63;;;;;;;;;;5151958;27;20397;-80
2023/03/09 06:30:22;;;;;;;25.80;15.98;;;;;;;;;;5153011;27;20397;-80
2023/03/09 06:32:48;;;;;;;25.40;16.13;;;;;;;;;;5132398;27;20134;-80
2023/03/09 06:35:15;;;;;;;26.27;16.15;;;;;;;;;;5126161;27;20039;-80
2023/03/09 06:37:41;;;;;;;25.17;15.77;;;;;;;;;;5135947;27;20050;-80
2023/03/09 06:40:08;;;;;;;24.88;15.23;;;;;;;;;;5141676;27;20161;-80
2023/03/09 06:42:34;;;;;;;29.42;17.60;;;;;;;;;;5138870;27;20046;-80
2023/03/09 06:45:00;;;;;;;27.45;16.90;;;;;;;;;;5150837;27;20039;-80
2023/03/09 06:47:26;;;;;;;27.60;17.13;;;;;;;;;;5131423;27;20042;-79
2023/03/09 06:49:52;;;;;;;28.27;16.98;;;;;;;;;;5127224;27;20046;-80
2023/03/09 06:52:18;;;;;;;26.60;17.45;;;;;;;;;;5127258;27;20031;-80
2023/03/09 06:54:44;;;;;;;27.73;16.73;;;;;;;;;;5140571;27;20046;-79
2023/03/09 06:57:11;;;;;;;25.25;16.95;;;;;;;;;;5149599;27;20406;-80
2023/03/09 06:59:37;;;;;;;27.10;16.63;;;;;;;;;;5122039;27;20035;-80
2023/03/09 07:02:03;;;;;;;29.83;17.45;;;;;;;;;;5118787;27;20367;-80
2023/03/09 07:04:29;;;;;;;27.80;16.50;;;;;;;;;;5134574;27;20103;-80
2023/03/09 07:06:55;;;;;;;28.80;17.85;;;;;;;;;;5117688;27;20069;-80
2023/03/09 07:09:21;;;;;;;30.38;17.00;;;;;;;;;;5127633;27;20039;-80
2023/03/09 07:11:48;;;;;;;29.95;18.23;;;;;;;;;;5134378;27;20047;-80
2023/03/09 07:14:14;;;;;;;27.88;16.77;;;;;;;;;;5127318;27;20465;-80
2023/03/09 07:16:40;;;;;;;27.17;17.70;;;;;;;;;;5148174;27;20445;-80
2023/03/09 07:19:06;;;;;;;29.98;17.40;;;;;;;;;;5129393;27;20546;-80
2023/03/09 07:21:32;;;;;;;30.38;17.30;;;;;;;;;;5120859;27;20138;-80
2023/03/09 07:23:58;;;;;;;28.38;16.55;;;;;;;;;;5145901;27;20031;-80
2023/03/09 07:26:25;;;;;;;30.83;17.48;;;;;;;;;;5130644;27;20371;-80
2023/03/09 07:28:51;;;;;;;27.63;17.73;;;;;;;;;;5116975;27;20055;-80
2023/03/09 07:31:17;;;;;;;30.40;17.02;;;;;;;;;;5125673;27;20121;-80
2023/03/09 07:33:43;;;;;;;29.70;17.52;;;;;;;;;;5129735;27;20051;-80
2023/03/09 07:36:09;;;;;;;26.50;15.82;;;;;;;;;;5132836;27;20091;-80
2023/03/09 07:38:36;;;;;;;27.23;16.02;;;;;;;;;;5131804;27;20099;-80
2023/03/09 07:41:02;;;;;;;24.92;15.07;;;;;;;;;;5138481;27;20122;-80
2023/03/09 07:43:28;;;;;;;27.98;16.33;;;;;;;;;;5119584;27;20105;-81
2023/03/09 07:45:54;;;;;;;25.20;16.30;;;;;;;;;;5142273;27;20035;-80
2023/03/09 07:48:20;;;;;;;23.55;14.88;;;;;;;;;;5146505;27;20042;-81
2023/03/09 07:50:46;;;;;;;23.55;15.00;;;;;;;;;;5127990;27;20470;-80
2023/03/09 07:53:12;;;;;;;24.00;15.10;;;;;;;;;;5149373;27;20110;-80
2023/03/09 07:55:38;;;;;;;23.48;14.63;;;;;;;;;;5143330;27;20043;-80
2023/03/09 07:58:05;;;;;;;22.73;14.65;;;;;;;;;;5117959;27;20038;-81
2023/03/09 08:00:32;;;;;;;24.58;15.45;;;;;;;;;;5151707;27;20043;-80
2023/03/09 08:02:58;;;;;;;23.23;15.25;;;;;;;;;;5137830;27;20131;-80
2023/03/09 08:05:25;;;;;;;25.25;14.32;;;;;;;;;;5135296;27;20054;-81
2023/03/09 08:07:51;;;;;;;25.17;16.25;;;;;;;;;;5114474;27;20367;-80
2023/03/09 08:10:18;;;;;;;24.55;14.95;;;;;;;;;;5144665;27;20486;-80
2023/03/09 08:12:47;;;;;;;24.45;14.45;;;;;;;;;;5133707;27;20138;-81
2023/03/09 08:15:14;;;;;;;24.48;14.43;;;;;;;;;;5121202;27;20057;-80
2023/03/09 08:17:40;;;;;;;25.05;15.27;;;;;;;;;;5122475;27;20148;-81
2023/03/09 08:20:08;;;;;;;24.33;15.35;;;;;;;;;;5142839;27;20398;-80
2023/03/09 08:22:36;;;;;;;25.48;16.02;;;;;;;;;;5130280;27;20402;-80
2023/03/09 08:25:03;;;;;;;25.52;15.40;;;;;;;;;;5143642;27;20055;-80
2023/03/09 08:27:29;;;;;;;24.05;14.68;;;;;;;;;;5145838;27;20485;-81
2023/03/09 08:29:55;;;;;;;23.58;14.73;;;;;;;;;;5139504;27;20043;-81
2023/03/09 08:32:23;;;;;;;23.05;13.90;;;;;;;;;;5141092;27;20039;-80
2023/03/09 08:34:49;;;;;;;22.08;13.50;;;;;;;;;;5121502;27;20042;-80
2023/03/09 08:37:15;;;;;;;20.27;12.95;;;;;;;;;;5115475;27;20035;-80
2023/03/09 08:39:41;;;;;;;20.20;13.27;;;;;;;;;;5112955;27;20119;-80
2023/03/09 08:42:07;;;;;;;19.42;11.55;;;;;;;;;;5132502;27;20078;-81
2023/03/09 08:44:34;;;;;;;16.60;11.02;;;;;;;;;;5117209;27;20047;-80
2023/03/09 08:47:00;;;;;;;18.17;11.27;;;;;;;;;;5137571;27;20052;-80
2023/03/09 08:49:26;;;;;;;19.35;11.20;;;;;;;;;;5148252;27;20518;-80
2023/03/09 08:51:52;;;;;;;16.02;10.43;;;;;;;;;;5116936;27;20138;-81
2023/03/09 08:54:18;;;;;;;18.23;10.88;;;;;;;;;;5139525;27;20498;-80
2023/03/09 08:56:44;;;;;;;16.83;10.15;;;;;;;;;;5141287;27;20401;-80
2023/03/09 08:59:10;;;;;;;12.70;8.90;;;;;;;;;;5141452;27;20042;-80
2023/03/09 09:01:36;;;;;;;14.73;9.55;;;;;;;;;;5141414;27;20070;-80
2023/03/09 09:04:02;;;;;;;14.02;8.82;;;;;;;;;;5119311;27;20608;-80
2023/03/09 09:06:28;;;;;;;14.70;9.18;;;;;;;;;;5129382;27;20042;-80
2023/03/09 09:08:54;;;;;;;15.55;10.68;;;;;;;;;;5133374;27;20047;-79
2023/03/09 09:11:20;;;;;;;12.82;8.88;;;;;;;;;;5126719;27;20111;-80
2023/03/09 09:13:47;;;;;;;12.55;8.88;;;;;;;;;;5148383;27;20379;-80
2023/03/09 09:16:16;;;;;;;15.23;9.13;;;;;;;;;;5143413;27;20513;-80
2023/03/09 09:18:42;;;;;;;13.77;8.43;;;;;;;;;;5124887;27;20158;-80
2023/03/09 09:21:09;;;;;;;12.25;8.38;;;;;;;;;;5142182;27;20066;-80
2023/03/09 09:23:36;;;;;;;11.88;8.00;;;;;;;;;;5147762;27;20458;-80
2023/03/09 09:26:02;;;;;;;13.75;8.52;;;;;;;;;;5126758;27;20038;-80
2023/03/09 09:28:28;;;;;;;12.23;8.70;;;;;;;;;;5144289;27;20493;-80
2023/03/09 09:30:54;;;;;;;13.73;9.20;;;;;;;;;;5143473;27;20134;-81
2023/03/09 09:33:21;;;;;;;13.93;8.48;;;;;;;;;;5125499;27;20046;-80
2023/03/09 09:36:00;;;;;;;13.18;8.07;;;;;;;;;;5122451;27;20031;-80
2023/03/09 09:38:27;;;;;;;15.15;8.82;;;;;;;;;;5123784;27;20051;-81
2023/03/09 09:40:54;;;;;;;14.32;9.38;;;;;;;;;;5127822;27;20059;-80
2023/03/09 09:43:22;;;;;;;14.65;9.38;;;;;;;;;;5129026;27;20577;-79
2023/03/09 09:45:49;;;;;;;13.35;9.52;;;;;;;;;;5126633;27;20397;-79
2023/03/09 09:48:17;;;;;;;12.20;9.02;;;;;;;;;;5129377;27;20045;-80
2023/03/09 09:50:59;;;;;;;13.05;9.18;;;;;;;;;;5124747;27;20050;-80
2023/03/09 09:53:31;;;;;;;14.30;9.43;;;;;;;;;;5128609;27;21468;-80
2023/03/09 09:56:00;;;;;;;14.68;9.60;;;;;;;;;;5122249;27;20054;-80
2023/03/09 09:58:36;;;;;;;16.75;9.82;;;;;;;;;;5131757;27;20059;-80
2023/03/09 10:01:05;;;;;;;14.82;8.93;;;;;;;;;;5124662;27;20035;-80
2023/03/09 10:03:39;;;;;;;14.25;9.50;;;;;;;;;;5149605;27;20117;-80
2023/03/09 10:06:12;;;;;;;12.27;8.82;;;;;;;;;;5131311;27;20082;-81
2023/03/09 10:08:42;;;;;;;15.00;8.95;;;;;;;;;;5131106;27;20366;-80
2023/03/09 10:11:08;;;;;;;14.13;9.05;;;;;;;;;;5145352;27;20083;-80
2023/03/09 10:13:48;;;;;;;13.82;8.50;;;;;;;;;;5140980;27;20130;-80
2023/03/09 10:16:17;;;;;;;12.10;8.27;;;;;;;;;;5125453;27;20051;-80
2023/03/09 10:18:54;;;;;;;12.43;8.73;;;;;;;;;;5149681;27;20038;-80
2023/03/09 10:21:26;;;;;;;16.92;8.43;;;;;;;;;;5125842;27;20480;-80
2023/03/09 10:23:53;;;;;;;11.68;8.68;;;;;;;;;;5143864;27;20035;-81
2023/03/09 10:26:32;;;;;;;10.75;7.63;;;;;;;;;;5143815;27;20054;-79
2023/03/09 10:29:02;;;;;;;10.70;7.80;;;;;;;;;;5148542;27;20073;-80
2023/03/09 10:31:32;;;;;;;11.52;8.15;;;;;;;;;;5123761;27;20050;-80
2023/03/09 10:34:24;;;;;;;12.35;8.60;;;;;;;;;;5124687;27;20050;-79
2023/03/09 10:36:58;;;;;;;12.30;8.38;;;;;;;;;;5138381;27;20104;-79
2023/03/09 10:39:25;;;;;;;12.27;8.80;;;;;;;;;;5123054;27;20081;-79
2023/03/09 10:41:55;;;;;;;10.82;8.52;;;;;;;;;;5127713;27;20049;-80
2023/03/09 10:44:22;;;;;;;13.07;8.77;;;;;;;;;;5132135;27;20389;-80
2023/03/09 10:46:58;;;;;;;10.50;7.85;;;;;;;;;;5121334;27;20039;-80
2023/03/09 10:49:25;;;;;;;12.45;8.55;;;;;;;;;;5120600;27;20122;-80
2023/03/09 10:52:14;;;;;;;11.38;8.48;;;;;;;;;;5148923;27;20102;-80
2023/03/09 10:54:41;;;;;;;10.95;8.20;;;;;;;;;;5141739;27;20043;-80
2023/03/09 10:57:24;;;;;;;13.15;9.88;;;;;;;;;;5146536;27;20499;-80
2023/03/09 11:00:06;;;;;;;11.43;9.15;;;;;;;;;;5141641;27;20358;-80
2023/03/09 11:02:33;;;;;;;11.85;9.25;;;;;;;;;;5140996;27;20050;-80
2023/03/09 11:05:12;;;;;;;12.15;8.88;;;;;;;;;;5145511;27;20049;-80
2023/03/09 11:07:38;;;;;;;12.57;8.73;;;;;;;;;;5117574;27;20044;-80
2023/03/09 11:10:20;;;;;;;13.90;9.60;;;;;;;;;;5126489;27;20058;-80
2023/03/09 11:12:47;;;;;;;12.48;9.68;;;;;;;;;;5122433;27;20122;-80
2023/03/09 11:15:16;;;;;;;12.35;9.75;;;;;;;;;;5128799;27;20042;-80
2023/03/09 11:17:42;;;;;;;12.27;10.23;;;;;;;;;;5131460;27;20477;-80
2023/03/09 11:20:23;;;;;;;12.93;9.43;;;;;;;;;;5129252;27;20042;-81
2023/03/09 11:22:52;;;;;;;14.05;10.02;;;;;;;;;;5128022;27;20047;-80
2023/03/09 11:25:24;;;;;;;12.75;9.52;;;;;;;;;;5132641;27;20039;-80
2023/03/09 11:27:55;;;;;;;14.73;9.52;;;;;;;;;;5131980;27;20077;-80
2023/03/09 11:30:23;;;;;;;13.40;10.10;;;;;;;;;;5150006;27;20478;-80
2023/03/09 11:32:50;;;;;;;11.98;9.52;;;;;;;;;;5129171;27;20031;-80
2023/03/09 11:35:17;;;;;;;14.93;9.80;;;;;;;;;;5130835;27;20048;-80
2023/03/09 11:37:46;;;;;;;13.70;10.68;;;;;;;;;;5144951;27;20037;-80
2023/03/09 11:40:14;;;;;;;14.18;8.95;;;;;;;;;;5149983;27;20066;-80
2023/03/09 11:43:06;;;;;;;12.32;10.25;;;;;;;;;;5121302;27;20065;-80
2023/03/09 11:45:34;;;;;;;12.95;9.02;;;;;;;;;;5097995;27;21142;-80
2023/03/09 11:48:20;;;;;;;14.05;9.60;;;;;;;;;;5141228;27;20046;-80
2023/03/09 11:50:51;;;;;;;10.70;8.57;;;;;;;;;;5147526;27;20458;-80
2023/03/09 11:53:22;;;;;;;12.80;9.35;;;;;;;;;;5143727;27;20073;-80
2023/03/09 11:55:50;;;;;;;11.75;9.82;;;;;;;;;;5136846;27;20039;-80
2023/03/09 11:58:19;;;;;;;11.75;8.63;;;;;;;;;;5135274;27;20035;-80
2023/03/09 12:00:48;;;;;;;12.57;9.00;;;;;;;;;;5122762;27;20039;-80
2023/03/09 12:03:16;;;;;;;13.77;9.25;;;;;;;;;;5139930;27;20104;-80
2023/03/09 12:05:46;;;;;;;11.27;8.98;;;;;;;;;;5145891;27;20127;-80
2023/03/09 12:08:16;;;;;;;11.68;9.05;;;;;;;;;;5121038;27;20150;-80
2023/03/09 12:10:53;;;;;;;12.43;9.15;;;;;;;;;;5136575;27;20518;-80
2023/03/09 12:13:25;;;;;;;14.25;9.32;;;;;;;;;;5148121;27;20051;-80
2023/03/09 12:16:00;;;;;;;13.02;9.35;;;;;;;;;;5122729;27;20114;-80
2023/03/09 12:18:53;;;;;;;11.77;9.15;;;;;;;;;;5140472;27;20099;-80
2023/03/09 12:21:27;;;;;;;12.43;9.48;;;;;;;;;;5140613;27;20053;-80
2023/03/09 12:23:53;;;;;;;15.75;10.07;;;;;;;;;;5143980;27;20394;-80
2023/03/09 12:26:40;;;;;;;15.68;10.32;;;;;;;;;;5122035;27;20490;-80
2023/03/09 12:29:19;;;;;;;12.48;9.38;;;;;;;;;;5117010;27;20091;-80
2023/03/09 12:31:45;;;;;;;12.40;8.93;;;;;;;;;;5143692;27;20109;-80
2023/03/09 12:34:11;;;;;;;11.80;9.32;;;;;;;;;;5137261;27;20039;-80
2023/03/09 12:36:41;;;;;;;12.27;8.85;;;;;;;;;;5123006;27;20042;-80
2023/03/09 12:39:24;;;;;;;11.10;7.93;;;;;;;;;;5141868;27;20142;-80
2023/03/09 12:42:03;;;;;;;11.23;9.00;;;;;;;;;;5129286;27;20098;-80
2023/03/09 12:44:47;;;;;;;12.52;8.80;;;;;;;;;;5121720;27;20038;-80
2023/03/09 12:47:22;;;;;;;10.93;8.38;;;;;;;;;;5127356;27;20046;-80
2023/03/09 12:49:49;;;;;;;10.90;8.18;;;;;;;;;;5121724;27;20122;-80
2023/03/09 12:52:36;;;;;;;10.65;8.65;;;;;;;;;;5121932;27;20479;-80
2023/03/09 12:55:04;;;;;;;12.68;8.80;;;;;;;;;;5116275;27;20042;-80
2023/03/09 12:57:30;;;;;;;10.95;8.25;;;;;;;;;;5147901;27;20129;-80
2023/03/09 13:00:11;;;;;;;10.23;8.07;;;;;;;;;;5150526;27;20075;-80
2023/03/09 13:02:37;;;;;;;11.30;8.77;;;;;;;;;;5130097;27;20049;-80
2023/03/09 13:05:19;;;;;;;13.80;9.02;;;;;;;;;;5128033;27;20043;-80
2023/03/09 13:07:51;;;;;;;11.77;8.32;;;;;;;;;;5124912;27;20035;-80
2023/03/09 13:10:22;;;;;;;13.27;9.02;;;;;;;;;;5145916;27;20545;-80
2023/03/09 13:12:53;;;;;;;11.75;8.02;;;;;;;;;;5129076;27;20237;-80
2023/03/09 13:15:21;;;;;;;12.07;8.07;;;;;;;;;;5133626;27;20039;-80
2023/03/09 13:18:04;;;;;;;10.50;7.80;;;;;;;;;;5147669;27;20436;-80
2023/03/09 13:20:36;;;;;;;12.52;8.38;;;;;;;;;;5143215;27;20054;-80
2023/03/09 13:23:06;;;;;;;11.50;8.57;;;;;;;;;;5121402;27;20134;-80
2023/03/09 13:25:35;;;;;;;11.05;8.23;;;;;;;;;;5128757;27;20043;-80
2023/03/09 13:28:03;;;;;;;11.25;8.75;;;;;;;;;;5134619;27;20042;-80
2023/03/09 13:30:29;;;;;;;12.40;8.98;;;;;;;;;;5131882;27;20042;-80
2023/03/09 13:32:58;;;;;;;9.95;8.23;;;;;;;;;;5124976;27;20055;-80
2023/03/09 13:35:28;;;;;;;11.38;8.25;;;;;;;;;;5145547;27;20847;-80
2023/03/09 13:37:56;;;;;;;13.18;8.00;;;;;;;;;;5154206;27;20045;-80
2023/03/09 13:40:29;;;;;;;10.63;8.23;;;;;;;;;;5128110;27;20066;-80
2023/03/09 13:42:56;;;;;;;10.95;8.50;;;;;;;;;;5153160;27;20488;-81
2023/03/09 13:45:23;;;;;;;13.48;8.88;;;;;;;;;;5128600;27;20038;-80
2023/03/09 13:47:53;;;;;;;9.75;8.00;;;;;;;;;;5148965;27;20035;-80
2023/03/09 13:50:19;;;;;;;10.15;7.90;;;;;;;;;;5125578;27;20046;-80
2023/03/09 13:53:02;;;;;;;10.55;7.65;;;;;;;;;;5129753;27;20039;-80
2023/03/09 13:55:28;;;;;;;10.45;8.30;;;;;;;;;;5128319;27;20046;-80
2023/03/09 13:58:05;;;;;;;12.90;9.25;;;;;;;;;;5127095;27;20069;-81
2023/03/09 14:00:31;;;;;;;9.77;8.02;;;;;;;;;;5145624;27;20078;-80
2023/03/09 14:02:57;;;;;;;10.48;7.65;;;;;;;;;;5126727;27;20043;-80
2023/03/09 14:05:24;;;;;;;10.32;8.52;;;;;;;;;;5129613;27;20053;-80
2023/03/09 14:07:54;;;;;;;9.60;7.80;;;;;;;;;;5128239;27;20057;-80
2023/03/09 14:10:28;;;;;;;9.55;7.22;;;;;;;;;;5141312;27;20427;-80
2023/03/09 14:12:59;;;;;;;8.98;7.18;;;;;;;;;;5147282;27;20051;-80
2023/03/09 14:15:25;;;;;;;9.65;7.18;;;;;;;;;;5142576;27;20047;-80
2023/03/09 14:17:52;;;;;;;8.50;6.60;;;;;;;;;;5131814;27;20038;-80
2023/03/09 14:20:22;;;;;;;10.50;7.22;;;;;;;;;;5150397;27;20085;-80
2023/03/09 14:22:48;;;;;;;9.80;7.60;;;;;;;;;;5147121;27;20094;-80
2023/03/09 14:25:23;;;;;;;10.18;7.20;;;;;;;;;;5132727;27;20125;-80
2023/03/09 14:27:50;;;;;;;10.80;7.40;;;;;;;;;;5134231;27;20046;-80